sensor_id;sensor_type;location;lat;lon;timestamp;temperature;humidity
30628;DHT22;17394;50.890;4.724;2023-10-09T00:01:40;15.60;99.90
30628;DHT22;17394;50.890;4.724;2023-10-09T00:04:10;15.70;99.90
30628;DHT22;17394;50.890;4.724;2023-10-09T00:06:37;15.70;99.90
30628;DHT22;17394;50.890;4.724;2023-10-09T00:09:06;15.70;99.90
30628;DHT22;17394;50.890;4.724;2023-10-09T00:11:51;15.70;99.90
30628;DHT22;17394;50.890;4.724;2023-10-09T00:14:29;15.80;99.90
30628;DHT22;17394;50.890;4.724;2023-10-09T00:16:59;15.80;99.90
30628;DHT22;17394;50.890;4.724;2023-10-09T00:19:37;15.80;99.90
30628;DHT22;17394;50.890;4.724;2023-10-09T00:22:03;15.80;99.90
30628;DHT22;17394;50.890;4.724;2023-10-09T00:24:33;15.80;99.90
30628;DHT22;17394;50.890;4.724;2023-10-09T00:26:59;15.80;99.90
30628;DHT22;17394;50.890;4.724;2023-10-09T00:29:39;15.80;99.90
30628;DHT22;17394;50.890;4.724;2023-10-09T00:32:11;15.90;99.90
30628;DHT22;17394;50.890;4.724;2023-10-09T00:34:44;15.80;99.90
30628;DHT22;17394;50.890;4.724;2023-10-09T00:37:16;15.80;99.90
30628;DHT22;17394;50.890;4.724;2023-10-09T00:39:42;15.80;99.90
30628;DHT22;17394;50.890;4.724;2023-10-09T00:42:14;15.90;99.90
30628;DHT22;17394;50.890;4.724;2023-10-09T00:44:57;15.90;99.90
30628;DHT22;17394;50.890;4.724;2023-10-09T00:47:28;15.90;99.90
30628;DHT22;17394;50.890;4.724;2023-10-09T00:50:17;16.00;99.90
30628;DHT22;17394;50.890;4.724;2023-10-09T00:52:55;16.00;99.90
30628;DHT22;17394;50.890;4.724;2023-10-09T00:55:33;15.90;99.90
30628;DHT22;17394;50.890;4.724;2023-10-09T00:58:11;15.90;99.90
30628;DHT22;17394;50.890;4.724;2023-10-09T01:00:42;15.90;99.90
30628;DHT22;17394;50.890;4.724;2023-10-09T01:03:12;15.80;99.90
30628;DHT22;17394;50.890;4.724;2023-10-09T01:05:48;15.80;99.90
30628;DHT22;17394;50.890;4.724;2023-10-09T01:08:22;15.70;99.90
30628;DHT22;17394;50.890;4.724;2023-10-09T01:10:57;15.70;99.90
30628;DHT22;17394;50.890;4.724;2023-10-09T01:13:25;15.70;99.90
30628;DHT22;17394;50.890;4.724;2023-10-09T01:16:15;15.70;99.90
30628;DHT22;17394;50.890;4.724;2023-10-09T01:18:46;15.70;99.90
30628;DHT22;17394;50.890;4.724;2023-10-09T01:21:16;15.70;99.90
30628;DHT22;17394;50.890;4.724;2023-10-09T01:23:43;15.60;99.90
30628;DHT22;17394;50.890;4.724;2023-10-09T01:26:37;15.60;99.90
30628;DHT22;17394;50.890;4.724;2023-10-09T01:29:16;15.60;99.90
30628;DHT22;17394;50.890;4.724;2023-10-09T01:31:46;15.50;99.90
30628;DHT22;17394;50.890;4.724;2023-10-09T01:34:24;15.50;99.90
30628;DHT22;17394;50.890;4.724;2023-10-09T01:36:53;15.50;99.90
30628;DHT22;17394;50.890;4.724;2023-10-09T01:39:25;15.50;99.90
30628;DHT22;17394;50.890;4.724;2023-10-09T01:41:54;15.50;99.90
30628;DHT22;17394;50.890;4.724;2023-10-09T01:44:32;15.50;99.90
30628;DHT22;17394;50.890;4.724;2023-10-09T01:47:05;15.50;99.90
30628;DHT22;17394;50.890;4.724;2023-10-09T01:49:34;15.50;99.90
30628;DHT22;17394;50.890;4.724;2023-10-09T01:52:03;15.50;99.90
30628;DHT22;17394;50.890;4.724;2023-10-09T01:54:38;15.50;99.90
30628;DHT22;17394;50.890;4.724;2023-10-09T01:57:06;15.50;99.90
30628;DHT22;17394;50.890;4.724;2023-10-09T01:59:36;15.50;99.90
30628;DHT22;17394;50.890;4.724;2023-10-09T02:02:09;15.60;99.90
30628;DHT22;17394;50.890;4.724;2023-10-09T02:05:01;15.60;99.90
30628;DHT22;17394;50.890;4.724;2023-10-09T02:07:48;15.60;99.90
30628;DHT22;17394;50.890;4.724;2023-10-09T02:10:22;15.60;99.90
30628;DHT22;17394;50.890;4.724;2023-10-09T02:13:06;15.70;99.90
30628;DHT22;17394;50.890;4.724;2023-10-09T02:15:34;15.70;99.90
30628;DHT22;17394;50.890;4.724;2023-10-09T02:23:34;15.70;99.90
30628;DHT22;17394;50.890;4.724;2023-10-09T02:26:17;15.60;99.90
30628;DHT22;17394;50.890;4.724;2023-10-09T02:28:55;15.60;99.90
30628;DHT22;17394;50.890;4.724;2023-10-09T02:31:39;15.60;99.90
30628;DHT22;17394;50.890;4.724;2023-10-09T02:34:17;15.60;99.90
30628;DHT22;17394;50.890;4.724;2023-10-09T02:36:47;15.60;99.90
30628;DHT22;17394;50.890;4.724;2023-10-09T02:39:26;15.50;99.90
30628;DHT22;17394;50.890;4.724;2023-10-09T02:41:53;15.50;99.90
30628;DHT22;17394;50.890;4.724;2023-10-09T02:44:23;15.50;99.90
30628;DHT22;17394;50.890;4.724;2023-10-09T02:46:55;15.40;99.90
30628;DHT22;17394;50.890;4.724;2023-10-09T02:49:23;15.40;99.90
30628;DHT22;17394;50.890;4.724;2023-10-09T02:51:53;15.40;99.90
30628;DHT22;17394;50.890;4.724;2023-10-09T02:54:19;15.40;99.90
30628;DHT22;17394;50.890;4.724;2023-10-09T02:56:53;15.30;99.90
30628;DHT22;17394;50.890;4.724;2023-10-09T02:59:30;15.30;99.90
30628;DHT22;17394;50.890;4.724;2023-10-09T03:01:56;15.30;99.90
30628;DHT22;17394;50.890;4.724;2023-10-09T03:04:29;15.30;99.90
30628;DHT22;17394;50.890;4.724;2023-10-09T03:06:58;15.30;99.90
30628;DHT22;17394;50.890;4.724;2023-10-09T03:09:24;15.30;99.90
30628;DHT22;17394;50.890;4.724;2023-10-09T03:11:55;15.30;99.90
30628;DHT22;17394;50.890;4.724;2023-10-09T03:14:28;15.30;99.90
30628;DHT22;17394;50.890;4.724;2023-10-09T03:16:58;15.30;99.90
30628;DHT22;17394;50.890;4.724;2023-10-09T03:19:26;15.40;99.90
30628;DHT22;17394;50.890;4.724;2023-10-09T03:21:52;15.40;99.90
30628;DHT22;17394;50.890;4.724;2023-10-09T03:24:18;15.40;99.90
30628;DHT22;17394;50.890;4.724;2023-10-09T03:26:45;15.30;99.90
30628;DHT22;17394;50.890;4.724;2023-10-09T03:29:11;15.30;99.90
30628;DHT22;17394;50.890;4.724;2023-10-09T03:31:38;15.40;99.90
30628;DHT22;17394;50.890;4.724;2023-10-09T03:34:06;15.40;99.90
30628;DHT22;17394;50.890;4.724;2023-10-09T03:36:36;15.40;99.90
30628;DHT22;17394;50.890;4.724;2023-10-09T03:39:07;15.50;99.90
30628;DHT22;17394;50.890;4.724;2023-10-09T03:41:52;15.50;99.90
30628;DHT22;17394;50.890;4.724;2023-10-09T03:44:20;15.40;99.90
30628;DHT22;17394;50.890;4.724;2023-10-09T03:46:46;15.40;99.90
30628;DHT22;17394;50.890;4.724;2023-10-09T03:49:12;15.30;99.90
30628;DHT22;17394;50.890;4.724;2023-10-09T03:51:39;15.20;99.90
30628;DHT22;17394;50.890;4.724;2023-10-09T03:54:05;15.20;99.90
30628;DHT22;17394;50.890;4.724;2023-10-09T03:56:35;15.20;99.90
30628;DHT22;17394;50.890;4.724;2023-10-09T03:59:01;15.10;99.90
30628;DHT22;17394;50.890;4.724;2023-10-09T04:01:29;15.10;99.90
30628;DHT22;17394;50.890;4.724;2023-10-09T04:03:59;15.10;99.90
30628;DHT22;17394;50.890;4.724;2023-10-09T04:06:29;15.10;99.90
30628;DHT22;17394;50.890;4.724;2023-10-09T04:09:02;15.10;99.90
30628;DHT22;17394;50.890;4.724;2023-10-09T04:11:48;15.10;99.90
30628;DHT22;17394;50.890;4.724;2023-10-09T04:14:23;15.10;99.90
30628;DHT22;17394;50.890;4.724;2023-10-09T04:16:59;15.10;99.90
30628;DHT22;17394;50.890;4.724;2023-10-09T04:20:01;15.10;99.90
30628;DHT22;17394;50.890;4.724;2023-10-09T04:22:45;15.00;99.90
30628;DHT22;17394;50.890;4.724;2023-10-09T04:25:18;15.10;99.90
30628;DHT22;17394;50.890;4.724;2023-10-09T04:27:58;15.10;99.90
30628;DHT22;17394;50.890;4.724;2023-10-09T04:30:45;15.10;99.90
30628;DHT22;17394;50.890;4.724;2023-10-09T04:33:22;15.10;99.90
30628;DHT22;17394;50.890;4.724;2023-10-09T04:36:04;15.20;99.90
30628;DHT22;17394;50.890;4.724;2023-10-09T04:38:53;15.20;99.90
30628;DHT22;17394;50.890;4.724;2023-10-09T04:41:42;15.20;99.90
30628;DHT22;17394;50.890;4.724;2023-10-09T04:44:08;15.20;99.90
30628;DHT22;17394;50.890;4.724;2023-10-09T04:46:43;15.20;99.90
30628;DHT22;17394;50.890;4.724;2023-10-09T04:49:10;15.20;99.90
30628;DHT22;17394;50.890;4.724;2023-10-09T04:51:54;15.20;99.90
30628;DHT22;17394;50.890;4.724;2023-10-09T04:54:43;15.20;99.90
30628;DHT22;17394;50.890;4.724;2023-10-09T04:57:38;15.30;99.90
30628;DHT22;17394;50.890;4.724;2023-10-09T05:00:24;15.30;99.90
30628;DHT22;17394;50.890;4.724;2023-10-09T05:02:54;15.30;99.90
30628;DHT22;17394;50.890;4.724;2023-10-09T05:05:24;15.30;99.90
30628;DHT22;17394;50.890;4.724;2023-10-09T05:08:16;15.30;99.90
30628;DHT22;17394;50.890;4.724;2023-10-09T05:10:47;15.30;99.90
30628;DHT22;17394;50.890;4.724;2023-10-09T05:13:28;15.30;99.90
30628;DHT22;17394;50.890;4.724;2023-10-09T05:16:14;15.30;99.90
30628;DHT22;17394;50.890;4.724;2023-10-09T05:18:56;15.30;99.90
30628;DHT22;17394;50.890;4.724;2023-10-09T05:21:35;15.30;99.90
30628;DHT22;17394;50.890;4.724;2023-10-09T05:24:11;15.30;99.90
30628;DHT22;17394;50.890;4.724;2023-10-09T05:26:49;15.30;99.90
30628;DHT22;17394;50.890;4.724;2023-10-09T05:31:46;15.30;99.90
30628;DHT22;17394;50.890;4.724;2023-10-09T05:34:21;15.30;99.90
30628;DHT22;17394;50.890;4.724;2023-10-09T05:36:49;15.30;99.90
30628;DHT22;17394;50.890;4.724;2023-10-09T05:39:14;15.30;99.90
30628;DHT22;17394;50.890;4.724;2023-10-09T05:41:48;15.20;99.90
30628;DHT22;17394;50.890;4.724;2023-10-09T05:44:17;15.30;99.90
30628;DHT22;17394;50.890;4.724;2023-10-09T05:47:01;15.30;99.90
30628;DHT22;17394;50.890;4.724;2023-10-09T05:49:47;15.30;99.90
30628;DHT22;17394;50.890;4.724;2023-10-09T05:52:23;15.20;99.90
30628;DHT22;17394;50.890;4.724;2023-10-09T05:55:25;15.20;99.90
30628;DHT22;17394;50.890;4.724;2023-10-09T05:58:10;15.20;99.90
30628;DHT22;17394;50.890;4.724;2023-10-09T06:00:54;15.20;99.90
30628;DHT22;17394;50.890;4.724;2023-10-09T06:03:38;15.20;99.90
30628;DHT22;17394;50.890;4.724;2023-10-09T06:06:40;15.30;99.90
30628;DHT22;17394;50.890;4.724;2023-10-09T06:09:11;15.30;99.90
30628;DHT22;17394;50.890;4.724;2023-10-09T06:11:37;15.30;99.90
30628;DHT22;17394;50.890;4.724;2023-10-09T06:14:03;15.30;99.90
30628;DHT22;17394;50.890;4.724;2023-10-09T06:16:30;15.30;99.90
30628;DHT22;17394;50.890;4.724;2023-10-09T06:19:10;15.30;99.90
30628;DHT22;17394;50.890;4.724;2023-10-09T06:21:55;15.30;99.90
30628;DHT22;17394;50.890;4.724;2023-10-09T06:24:41;15.30;99.90
30628;DHT22;17394;50.890;4.724;2023-10-09T06:27:21;15.30;99.90
30628;DHT22;17394;50.890;4.724;2023-10-09T06:29:57;15.30;99.90
30628;DHT22;17394;50.890;4.724;2023-10-09T06:32:42;15.30;99.90
30628;DHT22;17394;50.890;4.724;2023-10-09T06:35:17;15.30;99.90
30628;DHT22;17394;50.890;4.724;2023-10-09T06:37:57;15.40;99.90
30628;DHT22;17394;50.890;4.724;2023-10-09T06:40:29;15.40;99.90
30628;DHT22;17394;50.890;4.724;2023-10-09T06:43:13;15.40;99.90
30628;DHT22;17394;50.890;4.724;2023-10-09T06:45:45;15.40;99.90
30628;DHT22;17394;50.890;4.724;2023-10-09T06:48:12;15.40;99.90
30628;DHT22;17394;50.890;4.724;2023-10-09T06:50:57;15.50;99.90
30628;DHT22;17394;50.890;4.724;2023-10-09T06:53:59;15.50;99.90
30628;DHT22;17394;50.890;4.724;2023-10-09T06:56:30;15.50;99.90
30628;DHT22;17394;50.890;4.724;2023-10-09T06:58:56;15.50;99.90
30628;DHT22;17394;50.890;4.724;2023-10-09T07:01:29;15.60;99.90
30628;DHT22;17394;50.890;4.724;2023-10-09T07:04:05;15.50;99.90
30628;DHT22;17394;50.890;4.724;2023-10-09T07:06:49;15.60;99.90
30628;DHT22;17394;50.890;4.724;2023-10-09T07:09:17;15.60;99.90
30628;DHT22;17394;50.890;4.724;2023-10-09T07:11:51;15.70;99.90
30628;DHT22;17394;50.890;4.724;2023-10-09T07:14:21;15.70;99.90
30628;DHT22;17394;50.890;4.724;2023-10-09T07:19:47;15.80;99.90
30628;DHT22;17394;50.890;4.724;2023-10-09T07:22:16;15.90;99.90
30628;DHT22;17394;50.890;4.724;2023-10-09T07:24:49;15.90;99.90
30628;DHT22;17394;50.890;4.724;2023-10-09T07:27:26;15.90;99.90
30628;DHT22;17394;50.890;4.724;2023-10-09T07:30:30;16.00;99.90
30628;DHT22;17394;50.890;4.724;2023-10-09T07:32:57;16.10;99.90
30628;DHT22;17394;50.890;4.724;2023-10-09T07:35:36;16.10;99.90
30628;DHT22;17394;50.890;4.724;2023-10-09T07:38:08;16.20;99.90
30628;DHT22;17394;50.890;4.724;2023-10-09T07:40:41;16.20;99.90
30628;DHT22;17394;50.890;4.724;2023-10-09T07:43:35;16.30;99.90
30628;DHT22;17394;50.890;4.724;2023-10-09T07:46:05;16.40;99.90
30628;DHT22;17394;50.890;4.724;2023-10-09T07:49:10;16.50;99.90
30628;DHT22;17394;50.890;4.724;2023-10-09T07:51:38;16.50;99.90
30628;DHT22;17394;50.890;4.724;2023-10-09T07:54:09;16.60;99.90
30628;DHT22;17394;50.890;4.724;2023-10-09T07:56:41;16.70;99.90
30628;DHT22;17394;50.890;4.724;2023-10-09T07:59:07;16.80;99.90
30628;DHT22;17394;50.890;4.724;2023-10-09T08:01:44;16.90;99.90
30628;DHT22;17394;50.890;4.724;2023-10-09T08:04:25;17.00;99.90
30628;DHT22;17394;50.890;4.724;2023-10-09T08:07:10;17.10;99.90
30628;DHT22;17394;50.890;4.724;2023-10-09T08:09:48;17.20;99.90
30628;DHT22;17394;50.890;4.724;2023-10-09T08:12:15;17.20;99.90
30628;DHT22;17394;50.890;4.724;2023-10-09T08:15:06;17.20;99.90
30628;DHT22;17394;50.890;4.724;2023-10-09T08:17:49;17.30;99.90
30628;DHT22;17394;50.890;4.724;2023-10-09T08:20:51;17.30;99.90
30628;DHT22;17394;50.890;4.724;2023-10-09T08:23:37;17.40;99.90
30628;DHT22;17394;50.890;4.724;2023-10-09T08:26:16;17.40;99.90
30628;DHT22;17394;50.890;4.724;2023-10-09T08:28:55;17.40;99.90
30628;DHT22;17394;50.890;4.724;2023-10-09T08:31:41;17.40;99.90
30628;DHT22;17394;50.890;4.724;2023-10-09T08:34:22;17.40;99.90
30628;DHT22;17394;50.890;4.724;2023-10-09T08:36:52;17.40;99.90
30628;DHT22;17394;50.890;4.724;2023-10-09T08:39:21;17.50;99.90
30628;DHT22;17394;50.890;4.724;2023-10-09T08:41:54;17.60;99.90
30628;DHT22;17394;50.890;4.724;2023-10-09T08:44:24;17.70;99.90
30628;DHT22;17394;50.890;4.724;2023-10-09T08:46:54;17.80;99.90
30628;DHT22;17394;50.890;4.724;2023-10-09T08:49:21;17.80;99.90
30628;DHT22;17394;50.890;4.724;2023-10-09T08:51:50;17.90;99.90
30628;DHT22;17394;50.890;4.724;2023-10-09T08:54:18;18.00;99.90
30628;DHT22;17394;50.890;4.724;2023-10-09T08:56:45;18.00;99.90
30628;DHT22;17394;50.890;4.724;2023-10-09T08:59:20;18.00;99.90
30628;DHT22;17394;50.890;4.724;2023-10-09T09:01:47;18.20;99.90
30628;DHT22;17394;50.890;4.724;2023-10-09T09:04:40;18.20;99.90
30628;DHT22;17394;50.890;4.724;2023-10-09T09:07:25;18.20;99.90
30628;DHT22;17394;50.890;4.724;2023-10-09T09:09:59;18.40;99.90
30628;DHT22;17394;50.890;4.724;2023-10-09T09:12:49;18.40;99.90
30628;DHT22;17394;50.890;4.724;2023-10-09T09:15:22;18.50;99.90
30628;DHT22;17394;50.890;4.724;2023-10-09T09:18:07;18.60;99.90
30628;DHT22;17394;50.890;4.724;2023-10-09T09:20:34;18.80;99.90
30628;DHT22;17394;50.890;4.724;2023-10-09T09:23:09;18.90;99.90
30628;DHT22;17394;50.890;4.724;2023-10-09T09:28:14;19.10;99.90
30628;DHT22;17394;50.890;4.724;2023-10-09T09:30:52;19.20;99.90
30628;DHT22;17394;50.890;4.724;2023-10-09T09:33:24;19.20;99.90
30628;DHT22;17394;50.890;4.724;2023-10-09T09:36:18;19.20;99.90
30628;DHT22;17394;50.890;4.724;2023-10-09T09:38:45;19.10;99.90
30628;DHT22;17394;50.890;4.724;2023-10-09T09:41:15;19.10;99.90
30628;DHT22;17394;50.890;4.724;2023-10-09T09:43:53;19.10;99.90
30628;DHT22;17394;50.890;4.724;2023-10-09T09:46:31;19.30;99.90
30628;DHT22;17394;50.890;4.724;2023-10-09T09:49:05;19.50;99.90
30628;DHT22;17394;50.890;4.724;2023-10-09T09:51:47;19.70;99.90
30628;DHT22;17394;50.890;4.724;2023-10-09T09:54:16;19.90;99.90
30628;DHT22;17394;50.890;4.724;2023-10-09T09:56:45;20.00;99.90
30628;DHT22;17394;50.890;4.724;2023-10-09T09:59:25;20.10;99.90
30628;DHT22;17394;50.890;4.724;2023-10-09T10:01:55;20.20;99.90
30628;DHT22;17394;50.890;4.724;2023-10-09T10:04:32;20.30;99.90
30628;DHT22;17394;50.890;4.724;2023-10-09T10:07:05;20.30;99.90
30628;DHT22;17394;50.890;4.724;2023-10-09T10:09:42;20.30;99.90
30628;DHT22;17394;50.890;4.724;2023-10-09T10:12:12;20.20;99.90
30628;DHT22;17394;50.890;4.724;2023-10-09T10:14:55;20.20;99.90
30628;DHT22;17394;50.890;4.724;2023-10-09T10:17:25;20.20;99.90
30628;DHT22;17394;50.890;4.724;2023-10-09T10:20:08;20.20;99.90
30628;DHT22;17394;50.890;4.724;2023-10-09T10:22:41;20.20;99.90
30628;DHT22;17394;50.890;4.724;2023-10-09T10:28:20;20.10;99.90
30628;DHT22;17394;50.890;4.724;2023-10-09T10:31:10;20.20;99.90
30628;DHT22;17394;50.890;4.724;2023-10-09T10:36:21;20.40;99.90
30628;DHT22;17394;50.890;4.724;2023-10-09T10:39:07;20.50;99.90
30628;DHT22;17394;50.890;4.724;2023-10-09T10:41:37;20.50;99.90
30628;DHT22;17394;50.890;4.724;2023-10-09T10:44:31;20.60;99.90
30628;DHT22;17394;50.890;4.724;2023-10-09T10:47:00;20.60;99.90
30628;DHT22;17394;50.890;4.724;2023-10-09T10:49:27;20.60;99.90
30628;DHT22;17394;50.890;4.724;2023-10-09T10:52:02;20.60;99.90
30628;DHT22;17394;50.890;4.724;2023-10-09T10:54:42;20.70;99.90
30628;DHT22;17394;50.890;4.724;2023-10-09T10:57:21;20.60;99.90
30628;DHT22;17394;50.890;4.724;2023-10-09T11:00:10;20.70;99.90
30628;DHT22;17394;50.890;4.724;2023-10-09T11:02:55;20.80;99.90
30628;DHT22;17394;50.890;4.724;2023-10-09T11:05:41;20.70;99.90
30628;DHT22;17394;50.890;4.724;2023-10-09T11:08:10;20.80;99.90
30628;DHT22;17394;50.890;4.724;2023-10-09T11:10:37;20.80;99.90
30628;DHT22;17394;50.890;4.724;2023-10-09T11:13:27;20.80;99.90
30628;DHT22;17394;50.890;4.724;2023-10-09T11:15:57;20.90;99.90
30628;DHT22;17394;50.890;4.724;2023-10-09T11:18:41;20.90;99.90
30628;DHT22;17394;50.890;4.724;2023-10-09T11:21:14;21.00;99.90
30628;DHT22;17394;50.890;4.724;2023-10-09T11:23:41;21.00;99.90
30628;DHT22;17394;50.890;4.724;2023-10-09T11:26:24;21.00;99.90
30628;DHT22;17394;50.890;4.724;2023-10-09T11:29:10;21.00;99.90
30628;DHT22;17394;50.890;4.724;2023-10-09T11:32:05;20.90;99.90
30628;DHT22;17394;50.890;4.724;2023-10-09T11:34:33;20.90;99.90
30628;DHT22;17394;50.890;4.724;2023-10-09T11:37:13;20.80;99.90
30628;DHT22;17394;50.890;4.724;2023-10-09T11:39:43;20.90;99.90
30628;DHT22;17394;50.890;4.724;2023-10-09T11:42:19;20.90;99.90
30628;DHT22;17394;50.890;4.724;2023-10-09T11:45:24;21.00;99.90
30628;DHT22;17394;50.890;4.724;2023-10-09T11:47:54;21.00;99.90
30628;DHT22;17394;50.890;4.724;2023-10-09T11:50:43;21.10;99.90
30628;DHT22;17394;50.890;4.724;2023-10-09T11:53:16;21.10;99.90
30628;DHT22;17394;50.890;4.724;2023-10-09T11:55:59;21.10;99.90
30628;DHT22;17394;50.890;4.724;2023-10-09T11:58:25;21.20;99.90
30628;DHT22;17394;50.890;4.724;2023-10-09T12:00:56;21.10;99.90
30628;DHT22;17394;50.890;4.724;2023-10-09T12:03:26;21.10;99.90
30628;DHT22;17394;50.890;4.724;2023-10-09T12:06:00;21.20;99.90
30628;DHT22;17394;50.890;4.724;2023-10-09T12:08:52;21.20;99.90
30628;DHT22;17394;50.890;4.724;2023-10-09T12:11:23;21.10;99.90
30628;DHT22;17394;50.890;4.724;2023-10-09T12:13:55;21.10;99.90
30628;DHT22;17394;50.890;4.724;2023-10-09T12:16:26;21.20;99.90
30628;DHT22;17394;50.890;4.724;2023-10-09T12:18:54;21.20;99.90
30628;DHT22;17394;50.890;4.724;2023-10-09T12:21:21;21.20;99.90
30628;DHT22;17394;50.890;4.724;2023-10-09T12:23:48;21.30;99.90
30628;DHT22;17394;50.890;4.724;2023-10-09T12:26:14;21.30;99.90
30628;DHT22;17394;50.890;4.724;2023-10-09T12:28:41;21.30;99.90
30628;DHT22;17394;50.890;4.724;2023-10-09T12:31:12;21.30;99.90
30628;DHT22;17394;50.890;4.724;2023-10-09T12:33:42;21.30;99.90
30628;DHT22;17394;50.890;4.724;2023-10-09T12:36:12;21.30;99.90
30628;DHT22;17394;50.890;4.724;2023-10-09T12:38:48;21.30;99.90
30628;DHT22;17394;50.890;4.724;2023-10-09T12:41:24;21.30;99.90
30628;DHT22;17394;50.890;4.724;2023-10-09T12:43:54;21.30;99.90
30628;DHT22;17394;50.890;4.724;2023-10-09T12:46:20;21.30;99.90
30628;DHT22;17394;50.890;4.724;2023-10-09T12:48:54;21.30;99.90
30628;DHT22;17394;50.890;4.724;2023-10-09T12:51:21;21.40;99.90
30628;DHT22;17394;50.890;4.724;2023-10-09T12:53:51;21.40;99.90
30628;DHT22;17394;50.890;4.724;2023-10-09T12:56:26;21.30;99.90
30628;DHT22;17394;50.890;4.724;2023-10-09T12:59:03;21.30;99.90
30628;DHT22;17394;50.890;4.724;2023-10-09T13:01:31;21.30;99.90
30628;DHT22;17394;50.890;4.724;2023-10-09T13:04:12;21.30;99.90
30628;DHT22;17394;50.890;4.724;2023-10-09T13:06:39;21.30;99.90
30628;DHT22;17394;50.890;4.724;2023-10-09T13:09:14;21.30;99.90
30628;DHT22;17394;50.890;4.724;2023-10-09T13:11:40;21.20;99.90
30628;DHT22;17394;50.890;4.724;2023-10-09T13:14:06;21.20;99.90
30628;DHT22;17394;50.890;4.724;2023-10-09T13:16:48;21.20;99.90
30628;DHT22;17394;50.890;4.724;2023-10-09T13:19:16;21.30;99.90
30628;DHT22;17394;50.890;4.724;2023-10-09T13:21:43;21.30;99.90
30628;DHT22;17394;50.890;4.724;2023-10-09T13:24:09;21.30;99.90
30628;DHT22;17394;50.890;4.724;2023-10-09T13:26:39;21.20;99.90
30628;DHT22;17394;50.890;4.724;2023-10-09T13:29:06;21.10;99.90
30628;DHT22;17394;50.890;4.724;2023-10-09T13:31:35;21.20;99.90
30628;DHT22;17394;50.890;4.724;2023-10-09T13:34:04;21.10;99.90
30628;DHT22;17394;50.890;4.724;2023-10-09T13:36:32;21.10;99.90
30628;DHT22;17394;50.890;4.724;2023-10-09T13:39:03;21.10;99.90
30628;DHT22;17394;50.890;4.724;2023-10-09T13:41:49;21.10;99.90
30628;DHT22;17394;50.890;4.724;2023-10-09T13:44:16;21.10;99.90
30628;DHT22;17394;50.890;4.724;2023-10-09T13:46:42;21.10;99.90
30628;DHT22;17394;50.890;4.724;2023-10-09T13:49:11;21.10;99.90
30628;DHT22;17394;50.890;4.724;2023-10-09T13:51:43;21.10;99.90
30628;DHT22;17394;50.890;4.724;2023-10-09T13:54:13;21.20;99.90
30628;DHT22;17394;50.890;4.724;2023-10-09T13:56:49;21.20;99.90
30628;DHT22;17394;50.890;4.724;2023-10-09T13:59:20;21.20;99.90
30628;DHT22;17394;50.890;4.724;2023-10-09T14:01:57;21.20;99.90
30628;DHT22;17394;50.890;4.724;2023-10-09T14:04:25;21.30;99.90
30628;DHT22;17394;50.890;4.724;2023-10-09T14:06:54;21.30;99.90
30628;DHT22;17394;50.890;4.724;2023-10-09T14:09:24;21.30;99.90
30628;DHT22;17394;50.890;4.724;2023-10-09T14:12:21;21.30;99.90
30628;DHT22;17394;50.890;4.724;2023-10-09T14:14:48;21.20;99.90
30628;DHT22;17394;50.890;4.724;2023-10-09T14:17:15;21.10;99.90
30628;DHT22;17394;50.890;4.724;2023-10-09T14:19:47;21.10;99.90
30628;DHT22;17394;50.890;4.724;2023-10-09T14:22:17;21.10;99.90
30628;DHT22;17394;50.890;4.724;2023-10-09T14:24:44;21.10;99.90
30628;DHT22;17394;50.890;4.724;2023-10-09T14:27:14;21.10;99.90
30628;DHT22;17394;50.890;4.724;2023-10-09T14:29:49;21.10;99.90
30628;DHT22;17394;50.890;4.724;2023-10-09T14:32:16;21.10;99.90
30628;DHT22;17394;50.890;4.724;2023-10-09T14:34:46;21.10;99.90
30628;DHT22;17394;50.890;4.724;2023-10-09T14:37:18;21.10;99.90
30628;DHT22;17394;50.890;4.724;2023-10-09T14:39:45;21.10;99.90
30628;DHT22;17394;50.890;4.724;2023-10-09T14:42:17;21.10;99.90
30628;DHT22;17394;50.890;4.724;2023-10-09T14:44:44;21.20;99.90
30628;DHT22;17394;50.890;4.724;2023-10-09T14:47:13;21.20;99.90
30628;DHT22;17394;50.890;4.724;2023-10-09T14:49:47;21.20;99.90
30628;DHT22;17394;50.890;4.724;2023-10-09T14:52:14;21.20;99.90
30628;DHT22;17394;50.890;4.724;2023-10-09T14:54:46;21.20;99.90
30628;DHT22;17394;50.890;4.724;2023-10-09T14:57:13;21.10;99.90
30628;DHT22;17394;50.890;4.724;2023-10-09T14:59:39;21.10;99.90
30628;DHT22;17394;50.890;4.724;2023-10-09T15:02:05;21.10;99.90
30628;DHT22;17394;50.890;4.724;2023-10-09T15:04:33;21.10;99.90
30628;DHT22;17394;50.890;4.724;2023-10-09T15:07:03;21.10;99.90
30628;DHT22;17394;50.890;4.724;2023-10-09T15:09:35;21.00;99.90
30628;DHT22;17394;50.890;4.724;2023-10-09T15:12:02;21.00;99.90
30628;DHT22;17394;50.890;4.724;2023-10-09T15:14:32;21.00;99.90
30628;DHT22;17394;50.890;4.724;2023-10-09T15:16:57;21.00;99.90
30628;DHT22;17394;50.890;4.724;2023-10-09T15:19:23;21.00;99.90
30628;DHT22;17394;50.890;4.724;2023-10-09T15:21:55;21.00;99.90
30628;DHT22;17394;50.890;4.724;2023-10-09T15:24:21;21.00;99.90
30628;DHT22;17394;50.890;4.724;2023-10-09T15:26:48;21.00;99.90
30628;DHT22;17394;50.890;4.724;2023-10-09T15:29:24;21.00;99.90
30628;DHT22;17394;50.890;4.724;2023-10-09T15:32:00;20.90;99.90
30628;DHT22;17394;50.890;4.724;2023-10-09T15:34:36;20.90;99.90
30628;DHT22;17394;50.890;4.724;2023-10-09T15:37:02;20.80;99.90
30628;DHT22;17394;50.890;4.724;2023-10-09T15:39:29;20.70;99.90
30628;DHT22;17394;50.890;4.724;2023-10-09T15:41:57;20.70;99.90
30628;DHT22;17394;50.890;4.724;2023-10-09T15:44:23;20.40;99.90
30628;DHT22;17394;50.890;4.724;2023-10-09T15:46:53;20.50;99.90
30628;DHT22;17394;50.890;4.724;2023-10-09T15:49:28;20.40;99.90
30628;DHT22;17394;50.890;4.724;2023-10-09T15:51:57;20.40;99.90
30628;DHT22;17394;50.890;4.724;2023-10-09T15:54:24;20.30;99.90
30628;DHT22;17394;50.890;4.724;2023-10-09T15:56:49;20.30;99.90
30628;DHT22;17394;50.890;4.724;2023-10-09T15:59:15;20.30;99.90
30628;DHT22;17394;50.890;4.724;2023-10-09T16:01:42;20.20;99.90
30628;DHT22;17394;50.890;4.724;2023-10-09T16:04:11;20.20;99.90
30628;DHT22;17394;50.890;4.724;2023-10-09T16:06:38;20.10;99.90
30628;DHT22;17394;50.890;4.724;2023-10-09T16:09:07;20.10;99.90
30628;DHT22;17394;50.890;4.724;2023-10-09T16:11:40;20.00;99.90
30628;DHT22;17394;50.890;4.724;2023-10-09T16:14:07;19.90;99.90
30628;DHT22;17394;50.890;4.724;2023-10-09T16:16:36;19.90;99.90
30628;DHT22;17394;50.890;4.724;2023-10-09T16:19:07;19.80;99.90
30628;DHT22;17394;50.890;4.724;2023-10-09T16:21:35;19.80;99.90
30628;DHT22;17394;50.890;4.724;2023-10-09T16:24:02;19.70;99.90
30628;DHT22;17394;50.890;4.724;2023-10-09T16:26:31;19.70;99.90
30628;DHT22;17394;50.890;4.724;2023-10-09T16:29:09;19.60;99.90
30628;DHT22;17394;50.890;4.724;2023-10-09T16:31:35;19.60;99.90
30628;DHT22;17394;50.890;4.724;2023-10-09T16:34:05;19.50;99.90